createdAt,value
2017-07-10T00:01:38.019Z,20.50
2017-07-10T00:04:06.332Z,20.30
2017-07-10T00:06:33.863Z,20.30
2017-07-10T00:09:01.414Z,20.30
2017-07-10T00:11:28.942Z,20.30
2017-07-10T00:13:56.463Z,20.30
2017-07-10T00:16:24.782Z,20.20
2017-07-10T00:18:52.318Z,20.20
2017-07-10T00:21:19.873Z,20.30
2017-07-10T00:23:47.398Z,20.30
2017-07-10T00:26:14.949Z,20.20
2017-07-10T00:28:42.472Z,20.10
2017-07-10T00:31:10.029Z,20.00
2017-07-10T00:33:37.560Z,19.90
2017-07-10T00:36:05.885Z,19.30
2017-07-10T00:38:34.175Z,19.20
2017-07-10T00:41:01.703Z,19.10
2017-07-10T00:43:29.261Z,19.00
2017-07-10T00:45:56.787Z,18.90
2017-07-10T00:48:24.332Z,18.80
2017-07-10T00:50:52.624Z,18.60
2017-07-10T00:53:20.176Z,18.60
2017-07-10T00:55:48.471Z,18.80
2017-07-10T00:58:16.040Z,18.70
2017-07-10T01:00:43.568Z,18.70
2017-07-10T01:03:11.120Z,18.70
2017-07-10T01:05:38.645Z,18.50
2017-07-10T01:08:06.171Z,18.40
2017-07-10T01:10:34.487Z,18.30
2017-07-10T01:13:02.011Z,18.30
2017-07-10T01:15:29.557Z,18.40
2017-07-10T01:17:57.857Z,18.40
2017-07-10T01:20:25.412Z,18.40
2017-07-10T01:22:52.930Z,18.50
2017-07-10T01:25:20.479Z,18.60
2017-07-10T01:27:48.031Z,18.60
2017-07-10T01:30:15.592Z,18.60
2017-07-10T01:32:43.127Z,18.70
2017-07-10T01:35:10.651Z,18.70
2017-07-10T01:37:38.199Z,18.80
2017-07-10T01:40:05.723Z,18.80
2017-07-10T01:42:33.271Z,18.70
2017-07-10T01:45:00.806Z,18.80
2017-07-10T01:47:28.352Z,18.90
2017-07-10T01:49:56.645Z,19.10
2017-07-10T01:52:24.191Z,19.10
2017-07-10T01:54:51.722Z,19.10
2017-07-10T01:57:19.283Z,19.10
2017-07-10T01:59:46.804Z,19.10
2017-07-10T02:02:14.327Z,19.10
2017-07-10T02:04:41.880Z,19.20
2017-07-10T02:07:09.408Z,19.20
2017-07-10T02:09:36.952Z,19.20
2017-07-10T02:12:05.245Z,19.10
2017-07-10T02:14:32.801Z,19.10
2017-07-10T02:17:01.094Z,19.00
2017-07-10T02:19:29.411Z,19.00
2017-07-10T02:21:56.944Z,19.00
2017-07-10T02:24:24.499Z,19.00
2017-07-10T02:26:52.019Z,18.90
2017-07-10T02:29:19.544Z,18.90
2017-07-10T02:31:47.086Z,18.80
2017-07-10T02:34:15.375Z,18.80
2017-07-10T02:36:42.917Z,18.80
2017-07-10T02:39:10.439Z,18.80
2017-07-10T02:41:37.983Z,18.90
2017-07-10T02:44:05.508Z,18.90
2017-07-10T02:46:33.056Z,18.80
2017-07-10T02:49:00.584Z,18.90
2017-07-10T02:51:28.143Z,18.90
2017-07-10T02:53:55.667Z,19.00
2017-07-10T02:56:23.188Z,19.00
2017-07-10T02:58:50.736Z,19.10
2017-07-10T03:01:19.027Z,19.10
2017-07-10T03:03:46.570Z,19.10
2017-07-10T03:06:14.099Z,19.20
2017-07-10T03:08:41.642Z,19.20
2017-07-10T03:11:09.164Z,19.20
2017-07-10T03:13:36.712Z,19.20
2017-07-10T03:16:04.248Z,19.20
2017-07-10T03:18:32.580Z,19.00
2017-07-10T03:21:00.106Z,19.00
2017-07-10T03:23:27.641Z,19.00
2017-07-10T03:25:55.192Z,18.90
2017-07-10T03:28:22.717Z,18.90
2017-07-10T03:30:50.267Z,18.90
2017-07-10T03:33:17.792Z,18.90
2017-07-10T03:35:45.344Z,18.90
2017-07-10T03:38:12.872Z,18.90
2017-07-10T03:40:41.183Z,18.80
2017-07-10T03:43:08.707Z,18.80
2017-07-10T03:45:36.256Z,18.80
2017-07-10T03:48:03.784Z,18.80
2017-07-10T03:50:31.315Z,18.70
2017-07-10T03:52:59.629Z,18.60
2017-07-10T03:55:27.935Z,18.60
2017-07-10T03:57:55.480Z,18.60
2017-07-10T04:00:23.008Z,18.70
2017-07-10T04:02:51.318Z,18.80
2017-07-10T04:05:18.861Z,18.80
2017-07-10T04:07:46.411Z,18.90
2017-07-10T04:10:14.707Z,19.00
2017-07-10T04:12:42.278Z,19.00
2017-07-10T04:15:09.813Z,19.10
2017-07-10T04:17:38.112Z,19.10
2017-07-10T04:20:05.667Z,19.10
2017-07-10T04:22:33.961Z,19.10
2017-07-10T04:25:01.505Z,19.10
2017-07-10T04:27:29.031Z,19.20
2017-07-10T04:29:56.583Z,19.30
2017-07-10T04:32:24.112Z,19.40
2017-07-10T04:34:51.664Z,19.50
2017-07-10T04:37:19.198Z,19.60
2017-07-10T04:39:46.756Z,19.60
2017-07-10T04:42:14.289Z,19.60
2017-07-10T04:44:41.825Z,19.60
2017-07-10T04:47:09.377Z,19.80
2017-07-10T04:49:36.907Z,19.90
2017-07-10T04:52:04.457Z,20.00
2017-07-10T04:54:32.749Z,19.90
2017-07-10T04:57:00.301Z,19.90
2017-07-10T04:59:27.833Z,19.90
2017-07-10T05:01:55.434Z,19.90
2017-07-10T05:04:23.727Z,19.80
2017-07-10T05:06:52.045Z,19.80
2017-07-10T05:09:19.568Z,19.80
2017-07-10T05:11:47.092Z,19.90
2017-07-10T05:14:14.639Z,20.00
2017-07-10T05:16:42.166Z,20.10
2017-07-10T05:19:09.719Z,20.20
2017-07-10T05:21:37.243Z,20.30
2017-07-10T05:24:04.789Z,20.50
2017-07-10T05:26:32.316Z,20.60
2017-07-10T05:28:59.867Z,20.60
2017-07-10T05:31:27.396Z,20.60
2017-07-10T05:33:54.949Z,20.50
2017-07-10T05:36:22.474Z,20.40
2017-07-10T05:38:50.007Z,20.30
2017-07-10T05:41:17.559Z,20.30
2017-07-10T05:43:45.089Z,20.30
2017-07-10T05:46:13.411Z,20.30
2017-07-10T05:48:40.943Z,20.30
2017-07-10T05:51:08.483Z,20.40
2017-07-10T05:53:36.771Z,20.50
2017-07-10T05:56:04.321Z,20.40
2017-07-10T05:58:32.619Z,20.30
2017-07-10T06:01:00.183Z,20.30
2017-07-10T06:03:28.478Z,20.40
2017-07-10T06:05:56.015Z,20.40
2017-07-10T06:08:23.571Z,20.50
2017-07-10T06:10:51.108Z,20.80
2017-07-10T06:13:18.664Z,21.20
2017-07-10T06:15:46.192Z,21.70
2017-07-10T06:18:13.747Z,21.90
2017-07-10T06:20:41.280Z,22.00
2017-07-10T06:23:08.826Z,22.00
2017-07-10T06:25:36.352Z,21.90
2017-07-10T06:28:03.912Z,21.90
2017-07-10T06:30:31.440Z,21.70
2017-07-10T06:32:58.973Z,21.60
2017-07-10T06:35:26.524Z,21.60
2017-07-10T06:37:54.050Z,21.60
2017-07-10T06:40:22.361Z,21.80
2017-07-10T06:42:49.887Z,21.80
2017-07-10T06:45:17.435Z,21.90
2017-07-10T06:47:44.965Z,22.10
2017-07-10T06:50:13.280Z,22.50
2017-07-10T06:52:40.803Z,22.50
2017-07-10T06:55:09.123Z,22.60
2017-07-10T06:57:36.661Z,22.60
2017-07-10T07:00:04.188Z,22.60
2017-07-10T07:02:32.516Z,22.30
2017-07-10T07:05:00.047Z,22.30
2017-07-10T07:07:27.605Z,22.10
2017-07-10T07:09:55.133Z,22.00
2017-07-10T07:12:22.690Z,22.00
2017-07-10T07:14:50.991Z,22.00
2017-07-10T07:17:18.548Z,22.00
2017-07-10T07:19:46.849Z,22.20
2017-07-10T07:22:14.402Z,22.10
2017-07-10T07:24:42.691Z,22.50
2017-07-10T07:27:10.227Z,22.50
2017-07-10T07:29:37.784Z,22.50
2017-07-10T07:32:05.313Z,22.60
2017-07-10T07:34:32.863Z,22.50
2017-07-10T07:37:00.396Z,22.40
2017-07-10T07:39:27.938Z,22.20
2017-07-10T07:41:56.232Z,22.40
2017-07-10T07:44:23.789Z,22.40
2017-07-10T07:46:52.089Z,23.50
2017-07-10T07:49:19.655Z,23.50
2017-07-10T07:51:47.189Z,24.40
2017-07-10T07:54:15.487Z,24.50
2017-07-10T07:56:43.037Z,24.50
2017-07-10T07:59:10.567Z,24.30
2017-07-10T08:01:38.107Z,23.80
2017-07-10T08:04:05.632Z,23.70
2017-07-10T08:06:33.947Z,24.00
2017-07-10T08:09:01.472Z,23.90
2017-07-10T08:11:29.020Z,24.00
2017-07-10T08:13:56.557Z,24.00
2017-07-10T08:16:24.113Z,24.00
2017-07-10T08:18:52.406Z,24.10
2017-07-10T08:21:19.932Z,24.10
2017-07-10T08:23:47.478Z,24.10
2017-07-10T08:26:15.005Z,24.10
2017-07-10T08:28:43.315Z,24.00
2017-07-10T08:31:10.843Z,24.00
2017-07-10T08:33:38.399Z,24.00
2017-07-10T08:36:05.928Z,24.00
2017-07-10T08:38:33.479Z,23.90
2017-07-10T08:41:01.772Z,24.30
2017-07-10T08:43:29.328Z,24.30
2017-07-10T08:45:56.858Z,24.00
2017-07-10T08:48:24.391Z,23.70
2017-07-10T08:50:51.941Z,23.30
2017-07-10T08:53:19.485Z,23.10
2017-07-10T08:55:47.048Z,22.80
2017-07-10T08:58:14.576Z,22.60
2017-07-10T09:00:42.893Z,22.30
2017-07-10T09:03:10.426Z,22.30
2017-07-10T09:05:38.743Z,22.20
2017-07-10T09:08:07.035Z,22.20
2017-07-10T09:10:34.603Z,22.20
2017-07-10T09:13:02.139Z,22.20
2017-07-10T09:15:30.442Z,22.60
2017-07-10T09:17:57.993Z,22.50
2017-07-10T09:20:25.525Z,22.90
2017-07-10T09:22:53.067Z,23.30
2017-07-10T09:25:20.594Z,23.60
2017-07-10T09:27:48.141Z,23.80
2017-07-10T09:30:15.675Z,23.80
2017-07-10T09:32:43.227Z,23.60
2017-07-10T09:35:10.758Z,23.60
2017-07-10T09:37:39.081Z,23.60
2017-07-10T09:40:06.607Z,23.60
2017-07-10T09:42:34.132Z,23.50
2017-07-10T09:45:01.687Z,23.50
2017-07-10T09:47:29.217Z,23.60
2017-07-10T09:49:56.770Z,23.90
2017-07-10T09:52:24.291Z,24.40
2017-07-10T09:54:51.840Z,24.50
2017-07-10T09:57:19.376Z,24.70
2017-07-10T09:59:46.925Z,24.60
2017-07-10T10:02:14.467Z,24.40
2017-07-10T10:04:42.023Z,23.90
2017-07-10T10:07:09.546Z,23.50
2017-07-10T10:09:37.075Z,23.20
2017-07-10T10:12:05.398Z,22.80
2017-07-10T10:14:32.939Z,22.70
2017-07-10T10:17:01.251Z,22.30
2017-07-10T10:19:28.778Z,22.30
2017-07-10T10:21:56.329Z,22.30
2017-07-10T10:24:23.864Z,22.40
2017-07-10T10:26:51.411Z,22.50
2017-07-10T10:29:18.939Z,22.50
2017-07-10T10:31:46.496Z,22.60
2017-07-10T10:34:14.023Z,22.70
2017-07-10T10:36:41.552Z,23.00
2017-07-10T10:39:09.101Z,23.30
2017-07-10T10:41:36.628Z,23.70
2017-07-10T10:44:04.182Z,24.20
2017-07-10T10:46:31.707Z,24.90
2017-07-10T10:48:59.261Z,25.20
2017-07-10T10:51:26.790Z,25.60
2017-07-10T10:53:54.349Z,25.80
2017-07-10T10:56:21.875Z,25.80
2017-07-10T10:58:49.433Z,25.80
2017-07-10T11:01:17.733Z,25.60
2017-07-10T11:03:45.260Z,25.60
2017-07-10T11:06:12.814Z,25.60
2017-07-10T11:08:40.355Z,25.30
2017-07-10T11:11:07.905Z,25.30
2017-07-10T11:13:36.203Z,25.60
2017-07-10T11:16:03.755Z,25.60
2017-07-10T11:18:31.292Z,25.30
2017-07-10T11:20:58.845Z,25.50
2017-07-10T11:23:26.374Z,25.30
2017-07-10T11:25:53.927Z,25.00
2017-07-10T11:28:21.456Z,25.30
2017-07-10T11:30:48.987Z,25.90
2017-07-10T11:33:16.537Z,26.40
2017-07-10T11:35:44.065Z,26.60
2017-07-10T11:38:11.612Z,26.90
2017-07-10T11:40:39.135Z,27.50
2017-07-10T11:43:06.680Z,27.70
2017-07-10T11:45:34.221Z,27.60
2017-07-10T11:48:01.763Z,27.70
2017-07-10T11:50:29.300Z,28.10
2017-07-10T11:52:56.859Z,28.30
2017-07-10T11:55:24.392Z,28.30
2017-07-10T11:57:51.923Z,27.90
2017-07-10T12:00:19.486Z,27.70
2017-07-10T12:02:47.788Z,27.70
2017-07-10T12:05:15.340Z,27.70
2017-07-10T12:07:43.632Z,28.00
2017-07-10T12:10:11.183Z,28.00
2017-07-10T12:12:38.707Z,28.10
2017-07-10T12:15:06.251Z,27.90
2017-07-10T12:17:33.780Z,28.00
2017-07-10T12:20:01.331Z,28.30
2017-07-10T12:22:28.861Z,28.40
2017-07-10T12:24:56.393Z,28.20
2017-07-10T12:27:24.707Z,28.30
2017-07-10T12:29:52.231Z,28.30
2017-07-10T12:32:19.789Z,28.90
2017-07-10T12:34:48.089Z,29.80
2017-07-10T12:37:15.641Z,29.70
2017-07-10T12:39:43.176Z,29.60
2017-07-10T12:42:10.731Z,29.40
2017-07-10T12:44:38.264Z,29.30
2017-07-10T12:47:06.580Z,29.20
2017-07-10T12:49:34.103Z,29.20
2017-07-10T12:52:02.390Z,28.70
2017-07-10T12:54:29.931Z,28.70
2017-07-10T12:56:57.460Z,28.40
2017-07-10T12:59:25.011Z,28.10
2017-07-10T13:01:52.540Z,27.80
2017-07-10T13:04:20.869Z,27.30
2017-07-10T13:06:48.396Z,27.30
2017-07-10T13:09:15.945Z,27.00
2017-07-10T13:11:43.468Z,26.70
2017-07-10T13:14:11.019Z,26.30
2017-07-10T13:16:38.553Z,25.80
2017-07-10T13:19:06.080Z,25.70
2017-07-10T13:21:33.624Z,25.60
2017-07-10T13:24:01.147Z,25.60
2017-07-10T13:26:28.691Z,25.80
2017-07-10T13:28:56.218Z,26.20
2017-07-10T13:31:23.765Z,26.50
2017-07-10T13:33:51.300Z,26.60
2017-07-10T13:36:19.612Z,26.90
2017-07-10T13:38:47.145Z,26.80
2017-07-10T13:41:14.707Z,26.80
2017-07-10T13:43:42.235Z,26.80
2017-07-10T13:46:09.767Z,26.90
2017-07-10T13:48:37.317Z,26.80
2017-07-10T13:51:05.608Z,26.60
2017-07-10T13:53:33.153Z,26.60
2017-07-10T13:56:00.678Z,26.40
2017-07-10T13:58:28.223Z,26.20
2017-07-10T14:00:55.751Z,26.10
2017-07-10T14:03:23.300Z,26.40
2017-07-10T14:05:50.838Z,26.60
2017-07-10T14:08:18.397Z,26.80
2017-07-10T14:10:45.943Z,26.90
2017-07-10T14:13:13.471Z,27.20
2017-07-10T14:15:41.015Z,27.60
2017-07-10T14:18:09.305Z,28.10
2017-07-10T14:20:36.857Z,28.10
2017-07-10T14:23:04.384Z,28.20
2017-07-10T14:25:31.928Z,28.00
2017-07-10T14:27:59.456Z,27.80
2017-07-10T14:30:27.009Z,27.40
2017-07-10T14:32:54.551Z,26.90
2017-07-10T14:35:22.078Z,26.60
2017-07-10T14:37:49.623Z,26.40
2017-07-10T14:40:17.921Z,25.60
2017-07-10T14:42:45.469Z,25.60
2017-07-10T14:45:12.991Z,25.40
2017-07-10T14:47:40.539Z,25.10
2017-07-10T14:50:08.077Z,24.80
2017-07-10T14:52:35.607Z,24.60
2017-07-10T14:55:03.155Z,24.50
2017-07-10T14:57:30.740Z,24.40
2017-07-10T14:59:58.288Z,24.30
2017-07-10T15:02:25.816Z,23.90
2017-07-10T15:04:53.368Z,23.50
2017-07-10T15:07:20.900Z,23.10
2017-07-10T15:09:48.455Z,22.80
2017-07-10T15:12:15.984Z,22.70
2017-07-10T15:14:43.513Z,22.50
2017-07-10T15:17:11.064Z,22.40
2017-07-10T15:19:39.364Z,22.50
2017-07-10T15:22:07.698Z,22.60
2017-07-10T15:24:35.989Z,22.80
2017-07-10T15:27:03.538Z,22.80
2017-07-10T15:29:31.073Z,23.00
2017-07-10T15:31:58.631Z,23.10
2017-07-10T15:34:26.161Z,23.30
2017-07-10T15:36:53.688Z,23.50
2017-07-10T15:39:22.015Z,24.00
2017-07-10T15:41:49.539Z,24.00
2017-07-10T15:44:17.851Z,24.10
2017-07-10T15:46:46.148Z,24.00
2017-07-10T15:49:13.700Z,24.00
2017-07-10T15:51:41.230Z,23.90
2017-07-10T15:54:08.780Z,23.60
2017-07-10T15:56:36.304Z,23.40
2017-07-10T15:59:03.834Z,23.30
2017-07-10T16:01:31.384Z,23.20
2017-07-10T16:03:58.912Z,22.80
2017-07-10T16:06:27.224Z,22.20
2017-07-10T16:08:54.746Z,22.20
2017-07-10T16:11:23.058Z,21.70
2017-07-10T16:13:50.584Z,21.70
2017-07-10T16:16:18.144Z,21.60
2017-07-10T16:18:45.668Z,21.60
2017-07-10T16:21:13.195Z,21.50
2017-07-10T16:23:40.739Z,21.40
2017-07-10T16:26:08.268Z,21.40
2017-07-10T16:28:35.815Z,21.40
2017-07-10T16:31:03.338Z,21.40
2017-07-10T16:33:30.889Z,21.50
2017-07-10T16:35:59.188Z,21.80
2017-07-10T16:38:26.740Z,21.70
2017-07-10T16:40:54.266Z,22.00
2017-07-10T16:43:21.797Z,22.00
2017-07-10T16:45:49.361Z,22.10
2017-07-10T16:48:16.888Z,22.10
2017-07-10T16:50:45.205Z,22.20
2017-07-10T16:53:12.732Z,22.20
2017-07-10T16:55:40.283Z,22.20
2017-07-10T16:58:07.811Z,22.20
2017-07-10T17:00:36.133Z,22.10
2017-07-10T17:03:03.661Z,22.10
2017-07-10T17:05:31.228Z,22.10
2017-07-10T17:07:58.755Z,22.10
2017-07-10T17:10:26.281Z,22.10
2017-07-10T17:12:53.829Z,22.00
2017-07-10T17:15:21.354Z,21.90
2017-07-10T17:17:48.900Z,21.80
2017-07-10T17:20:16.434Z,21.80
2017-07-10T17:22:43.983Z,21.80
2017-07-10T17:25:11.511Z,21.70
2017-07-10T17:27:39.060Z,21.70
2017-07-10T17:30:06.588Z,21.70
2017-07-10T17:32:34.911Z,21.60
2017-07-10T17:35:02.439Z,21.50
2017-07-10T17:37:29.970Z,21.60
2017-07-10T17:39:57.525Z,21.70
2017-07-10T17:42:25.055Z,21.70
2017-07-10T17:44:53.424Z,21.80
2017-07-10T17:47:20.956Z,22.00
2017-07-10T17:49:48.505Z,22.10
2017-07-10T17:52:16.037Z,22.20
2017-07-10T17:54:43.596Z,22.20
2017-07-10T17:57:11.124Z,22.20
2017-07-10T17:59:38.656Z,22.10
2017-07-10T18:02:06.204Z,22.20
2017-07-10T18:04:33.732Z,22.20
2017-07-10T18:07:01.282Z,22.20
2017-07-10T18:09:28.812Z,22.20
2017-07-10T18:11:56.366Z,22.30
2017-07-10T18:14:23.892Z,22.30
2017-07-10T18:16:52.203Z,22.20
2017-07-10T18:19:20.494Z,22.10
2017-07-10T18:21:48.047Z,22.10
2017-07-10T18:24:17.083Z,22.00
2017-07-10T18:26:44.605Z,22.00
2017-07-10T18:29:12.157Z,21.90
2017-07-10T18:31:39.680Z,21.70
2017-07-10T18:34:07.243Z,21.70
2017-07-10T18:36:34.768Z,21.60
2017-07-10T18:39:02.315Z,21.50
2017-07-10T18:41:29.855Z,21.50
2017-07-10T18:43:57.399Z,21.50
2017-07-10T18:46:25.687Z,21.40
2017-07-10T18:48:53.251Z,21.40
2017-07-10T18:51:20.777Z,21.30
2017-07-10T18:53:48.312Z,21.20
2017-07-10T18:56:15.860Z,21.00
2017-07-10T18:58:43.384Z,20.80
2017-07-10T19:01:10.931Z,20.70
2017-07-10T19:03:38.460Z,20.60
2017-07-10T19:06:06.007Z,20.50
2017-07-10T19:08:34.333Z,20.50
2017-07-10T19:11:01.893Z,20.50
2017-07-10T19:13:29.420Z,20.50
2017-07-10T19:15:56.952Z,20.50
2017-07-10T19:18:24.506Z,20.50
2017-07-10T19:20:52.037Z,20.40
2017-07-10T19:23:19.590Z,20.40
2017-07-10T19:25:47.120Z,20.40
2017-07-10T19:28:14.675Z,20.30
2017-07-10T19:30:42.199Z,20.10
2017-07-10T19:33:09.753Z,19.90
2017-07-10T19:35:38.047Z,19.90
2017-07-10T19:38:05.581Z,19.90
2017-07-10T19:40:33.127Z,19.90
2017-07-10T19:43:00.659Z,19.90
2017-07-10T19:45:28.206Z,19.90
2017-07-10T19:47:55.743Z,19.80
2017-07-10T19:50:23.300Z,19.90
2017-07-10T19:52:50.830Z,19.80
2017-07-10T19:55:18.376Z,19.70
2017-07-10T19:57:45.918Z,19.60
2017-07-10T20:00:13.474Z,19.60
2017-07-10T20:02:41.004Z,19.60
2017-07-10T20:05:08.529Z,19.60
2017-07-10T20:07:36.846Z,19.60
2017-07-10T20:10:04.372Z,19.50
2017-07-10T20:12:32.686Z,19.50
2017-07-10T20:15:00.212Z,19.50
2017-07-10T20:17:28.528Z,19.40
2017-07-10T20:19:56.052Z,19.40
2017-07-10T20:22:23.612Z,19.40
2017-07-10T20:24:51.143Z,19.50
2017-07-10T20:27:18.671Z,19.40
2017-07-10T20:29:46.983Z,19.50
2017-07-10T20:32:15.281Z,19.50
2017-07-10T20:34:42.828Z,19.40
2017-07-10T20:37:10.351Z,19.40
2017-07-10T20:39:38.660Z,19.30
2017-07-10T20:42:06.187Z,19.30
2017-07-10T20:44:33.735Z,19.30
2017-07-10T20:47:02.024Z,19.20
2017-07-10T20:49:29.584Z,19.20
2017-07-10T20:51:57.879Z,19.20
2017-07-10T20:54:26.177Z,19.10
2017-07-10T20:56:53.727Z,19.10
2017-07-10T20:59:21.261Z,19.00
2017-07-10T21:01:48.811Z,18.80
2017-07-10T21:04:16.338Z,18.70
2017-07-10T21:06:43.894Z,18.60
2017-07-10T21:09:12.188Z,18.60
2017-07-10T21:11:39.744Z,18.60
2017-07-10T21:14:08.040Z,18.70
2017-07-10T21:16:35.569Z,18.70
2017-07-10T21:19:03.122Z,18.70
2017-07-10T21:21:31.414Z,18.50
2017-07-10T21:23:58.962Z,18.50
2017-07-10T21:26:26.484Z,18.50
2017-07-10T21:28:54.798Z,18.50
2017-07-10T21:31:23.100Z,18.50
2017-07-10T21:33:50.665Z,18.50
2017-07-10T21:36:18.196Z,18.50
2017-07-10T21:38:45.731Z,18.50
2017-07-10T21:41:13.284Z,18.60
2017-07-10T21:43:40.812Z,18.60
2017-07-10T21:46:08.365Z,18.60
2017-07-10T21:48:36.659Z,18.50
2017-07-10T21:51:04.208Z,18.40
2017-07-10T21:53:31.733Z,18.40
2017-07-10T21:55:59.287Z,18.40
2017-07-10T21:58:26.815Z,18.40
2017-07-10T22:00:55.107Z,18.50
2017-07-10T22:03:22.655Z,18.40
2017-07-10T22:05:50.947Z,18.60
2017-07-10T22:08:18.491Z,18.60
2017-07-10T22:10:46.016Z,18.60
2017-07-10T22:13:13.571Z,18.60
2017-07-10T22:15:41.101Z,18.70
2017-07-10T22:18:08.653Z,18.70
2017-07-10T22:20:36.179Z,18.70
2017-07-10T22:23:03.721Z,18.70
2017-07-10T22:25:31.272Z,18.70
2017-07-10T22:27:58.800Z,18.70
2017-07-10T22:30:27.120Z,18.70
2017-07-10T22:32:54.655Z,18.70
2017-07-10T22:35:22.203Z,18.70
2017-07-10T22:37:49.732Z,18.70
2017-07-10T22:40:17.289Z,18.80
2017-07-10T22:42:44.827Z,18.80
2017-07-10T22:45:12.357Z,18.70
2017-07-10T22:47:39.912Z,18.70
2017-07-10T22:50:07.439Z,18.60
2017-07-10T22:52:34.988Z,18.60
2017-07-10T22:55:02.514Z,18.50
2017-07-10T22:57:30.066Z,18.50
2017-07-10T22:59:58.373Z,18.40
2017-07-10T23:02:25.924Z,18.30
2017-07-10T23:04:53.460Z,18.30
2017-07-10T23:07:21.756Z,18.30
2017-07-10T23:09:49.305Z,18.30
2017-07-10T23:12:17.604Z,18.30
2017-07-10T23:14:45.152Z,18.30
2017-07-10T23:17:12.684Z,18.30
2017-07-10T23:19:40.233Z,18.20
2017-07-10T23:22:07.769Z,18.20
2017-07-10T23:24:35.314Z,18.20
2017-07-10T23:27:03.602Z,18.20
2017-07-10T23:29:31.129Z,18.20
2017-07-10T23:31:59.448Z,18.20
2017-07-10T23:34:26.975Z,18.20
2017-07-10T23:36:54.518Z,18.20
2017-07-10T23:39:22.039Z,18.30
2017-07-10T23:41:49.587Z,18.40
2017-07-10T23:44:17.112Z,18.40
2017-07-10T23:46:44.643Z,18.40
2017-07-10T23:49:12.188Z,18.30
2017-07-10T23:51:39.720Z,18.20
2017-07-10T23:54:07.276Z,18.20
2017-07-10T23:56:35.575Z,18.30
2017-07-10T23:59:03.132Z,18.20
